Time;durP1;ratioP1;P1;durP2;ratioP2;P2;SDS_P1;SDS_P2;PMS_P1;PMS_P2;Temp;Humidity;BMP_temperature;BMP_pressure;BME280_temperature;BME280_humidity;BME280_pressure;Samples;Min_cycle;Max_cycle;Signal;HPM_P1;HPM_P2
2022/08/16 00:00:52;;;;;;;9.30;6.90;;;20.10;99.90;;;;;;5073547;28;20020;-73
2022/08/16 00:03:18;;;;;;;12.52;8.10;;;20.00;99.90;;;;;;5073399;28;20033;-73
2022/08/16 00:05:44;;;;;;;12.50;7.85;;;20.00;99.90;;;;;;5072566;28;20107;-73
2022/08/16 00:08:10;;;;;;;10.43;8.07;;;20.00;99.90;;;;;;5073336;28;20039;-73
2022/08/16 00:10:36;;;;;;;15.63;8.43;;;19.90;99.90;;;;;;5073343;28;20064;-73
2022/08/16 00:13:05;;;;;;;14.35;6.82;;;19.90;99.90;;;;;;5073208;28;20032;-73
2022/08/16 00:15:44;;;;;;;14.02;7.88;;;19.90;99.90;;;;;;5072975;28;20120;-73
2022/08/16 00:18:11;;;;;;;13.05;8.38;;;19.90;99.90;;;;;;5073833;28;20104;-73
2022/08/16 00:20:38;;;;;;;12.10;8.10;;;19.80;99.90;;;;;;5071962;28;20433;-73
2022/08/16 00:23:05;;;;;;;11.15;8.05;;;19.80;99.90;;;;;;5073157;28;20013;-73
2022/08/16 00:25:31;;;;;;;10.95;8.07;;;19.80;99.90;;;;;;5073236;28;20024;-73
2022/08/16 00:27:57;;;;;;;12.13;7.25;;;19.70;99.90;;;;;;5073252;28;20025;-73
2022/08/16 00:30:23;;;;;;;14.43;7.85;;;19.70;99.90;;;;;;5073129;28;20032;-73
2022/08/16 00:32:52;;;;;;;17.23;7.45;;;19.70;99.90;;;;;;5072947;28;20397;-72
2022/08/16 00:35:23;;;;;;;11.68;7.93;;;19.60;99.90;;;;;;5073031;28;20056;-72
2022/08/16 00:37:49;;;;;;;11.20;8.10;;;19.50;99.90;;;;;;5073133;28;20028;-73
2022/08/16 00:40:20;;;;;;;14.43;8.85;;;19.50;99.90;;;;;;5073072;28;20025;-72
2022/08/16 00:42:46;;;;;;;11.23;8.20;;;19.50;99.90;;;;;;5073039;28;20390;-73
2022/08/16 00:45:32;;;;;;;14.50;8.38;;;19.50;99.90;;;;;;5073286;28;20059;-73
2022/08/16 00:48:00;;;;;;;12.35;7.70;;;19.40;99.90;;;;;;5073627;28;20381;-73
2022/08/16 00:50:28;;;;;;;13.50;8.23;;;19.30;99.90;;;;;;5071743;28;20020;-74
2022/08/16 00:52:54;;;;;;;12.63;8.95;;;19.30;99.90;;;;;;5075073;28;20481;-74
2022/08/16 00:55:22;;;;;;;15.30;7.97;;;19.30;99.90;;;;;;5077116;28;20077;-74
2022/08/16 00:57:50;;;;;;;13.45;8.55;;;19.20;99.90;;;;;;5077003;28;20078;-75
2022/08/16 01:00:16;;;;;;;13.77;8.68;;;19.20;99.90;;;;;;5077577;28;20590;-74
2022/08/16 01:02:42;;;;;;;14.98;9.05;;;19.20;99.90;;;;;;5076776;28;20350;-74
2022/08/16 01:05:08;;;;;;;13.02;8.90;;;19.10;99.90;;;;;;5076817;28;20039;-74
2022/08/16 01:07:34;;;;;;;11.55;7.65;;;19.10;99.90;;;;;;5076712;28;20102;-74
2022/08/16 01:10:00;;;;;;;13.27;7.60;;;19.00;99.90;;;;;;5076680;28;20111;-74
2022/08/16 01:12:25;;;;;;;10.40;7.32;;;18.90;99.90;;;;;;5075381;28;20032;-74
2022/08/16 01:14:55;;;;;;;10.77;7.53;;;19.00;99.90;;;;;;5076325;28;20320;-74
2022/08/16 01:17:21;;;;;;;13.70;8.43;;;18.90;99.90;;;;;;5076540;28;20394;-74
2022/08/16 01:19:57;;;;;;;13.18;8.85;;;18.90;99.90;;;;;;5075211;28;20021;-74
2022/08/16 01:22:51;;;;;;;12.55;8.00;;;18.90;99.90;;;;;;5075201;28;20029;-74
2022/08/16 01:25:33;;;;;;;12.32;8.38;;;18.90;99.90;;;;;;5076725;28;20416;-74
2022/08/16 01:28:04;;;;;;;13.20;8.10;;;18.90;99.90;;;;;;5075107;28;20035;-74
2022/08/16 01:30:33;;;;;;;11.68;8.25;;;18.80;99.90;;;;;;5076361;28;20031;-74
2022/08/16 01:33:02;;;;;;;14.68;8.23;;;18.80;99.90;;;;;;5076261;28;20112;-75
2022/08/16 01:35:41;;;;;;;14.02;8.73;;;18.80;99.90;;;;;;5076277;28;20047;-74
2022/08/16 01:38:22;;;;;;;12.23;8.02;;;18.70;99.90;;;;;;5076821;28;20460;-74
2022/08/16 01:40:51;;;;;;;11.90;8.57;;;18.70;99.90;;;;;;5074868;28;20107;-75
2022/08/16 01:43:18;;;;;;;17.15;8.32;;;18.70;99.90;;;;;;5076011;28;20070;-74
2022/08/16 01:45:43;;;;;;;11.95;8.35;;;18.70;99.90;;;;;;5074836;28;20120;-74
2022/08/16 01:48:10;;;;;;;13.85;8.77;;;18.60;99.90;;;;;;5076037;28;20048;-74
2022/08/16 01:50:37;;;;;;;15.50;8.75;;;18.60;99.90;;;;;;5075982;28;20474;-74
2022/08/16 01:53:03;;;;;;;16.52;10.38;;;18.60;99.90;;;;;;5075893;28;20028;-75
2022/08/16 01:55:30;;;;;;;16.92;9.55;;;18.60;99.90;;;;;;5074636;28;20020;-74
2022/08/16 01:57:55;;;;;;;15.48;9.90;;;18.60;99.90;;;;;;5076126;28;20021;-74
2022/08/16 02:00:21;;;;;;;21.08;10.10;;;18.60;99.90;;;;;;5074599;28;20025;-74
2022/08/16 02:02:47;;;;;;;15.93;10.40;;;18.50;99.90;;;;;;5075584;28;20578;-74
2022/08/16 02:05:13;;;;;;;17.67;11.07;;;18.60;99.90;;;;;;5075146;28;20025;-74
2022/08/16 02:07:39;;;;;;;16.60;10.15;;;18.60;99.90;;;;;;5075615;28;20024;-74
2022/08/16 02:10:08;;;;;;;17.35;10.55;;;18.60;99.90;;;;;;5074425;28;20020;-74
2022/08/16 02:12:34;;;;;;;18.48;10.68;;;18.60;99.90;;;;;;5075856;28;20021;-74
2022/08/16 02:15:00;;;;;;;15.85;10.27;;;18.60;99.90;;;;;;5075434;28;20033;-74
2022/08/16 02:17:26;;;;;;;17.80;10.80;;;18.50;99.90;;;;;;5075392;28;20466;-74
2022/08/16 02:19:52;;;;;;;14.98;10.05;;;18.50;99.90;;;;;;5075762;28;20024;-74
2022/08/16 02:22:21;;;;;;;17.85;10.02;;;18.50;99.90;;;;;;5074053;28;20020;-74
2022/08/16 02:24:47;;;;;;;19.20;11.10;;;18.40;99.90;;;;;;5075354;28;20044;-74
2022/08/16 02:27:13;;;;;;;17.55;11.23;;;18.40;99.90;;;;;;5075554;28;20075;-74
2022/08/16 02:29:39;;;;;;;20.27;11.23;;;18.30;99.90;;;;;;5075521;28;20486;-74
2022/08/16 02:32:06;;;;;;;22.40;11.10;;;18.30;99.90;;;;;;5075063;28;20063;-74
2022/08/16 02:34:32;;;;;;;20.30;10.65;;;18.30;99.90;;;;;;5073924;28;20508;-74
2022/08/16 02:36:58;;;;;;;21.80;11.40;;;18.30;99.90;;;;;;5074838;28;20025;-74
2022/08/16 02:39:24;;;;;;;16.83;11.20;;;18.30;99.90;;;;;;5075108;28;20367;-74
2022/08/16 02:41:51;;;;;;;16.67;10.90;;;18.30;99.90;;;;;;5075192;28;20016;-74
2022/08/16 02:44:18;;;;;;;16.73;11.05;;;18.20;99.90;;;;;;5074918;28;20023;-74
2022/08/16 02:46:44;;;;;;;17.92;10.70;;;18.20;99.90;;;;;;5075002;28;20437;-74
2022/08/16 02:49:10;;;;;;;18.90;10.95;;;18.20;99.90;;;;;;5075412;28;20091;-74
2022/08/16 02:51:37;;;;;;;18.02;11.00;;;18.20;99.90;;;;;;5074844;28;20155;-74
2022/08/16 02:54:04;;;;;;;15.10;10.32;;;18.20;99.90;;;;;;5074696;28;20028;-74
2022/08/16 02:56:29;;;;;;;18.73;10.98;;;18.20;99.90;;;;;;5074594;28;20035;-74
2022/08/16 02:58:55;;;;;;;17.70;10.43;;;18.10;99.90;;;;;;5075201;28;20016;-74
2022/08/16 03:01:24;;;;;;;17.27;11.02;;;18.10;99.90;;;;;;5074606;28;20378;-74
2022/08/16 03:03:50;;;;;;;18.35;11.10;;;18.10;99.90;;;;;;5074539;28;20394;-74
2022/08/16 03:06:19;;;;;;;17.70;12.27;;;18.10;99.90;;;;;;5074574;28;20025;-74
2022/08/16 03:08:45;;;;;;;;;;;18.10;99.90;;;;;;5074970;28;20027;-74
2022/08/16 03:11:11;;;;;;;17.02;9.98;;;18.00;99.90;;;;;;5074381;28;19904;-74
2022/08/16 03:13:38;;;;;;;18.27;10.18;;;17.90;99.90;;;;;;5074209;28;20107;-74
2022/08/16 03:16:04;;;;;;;19.15;10.55;;;18.00;99.90;;;;;;5073184;28;20020;-74
2022/08/16 03:18:30;;;;;;;19.58;11.80;;;17.90;99.90;;;;;;5072943;28;20063;-74
2022/08/16 03:20:58;;;;;;;18.33;11.00;;;17.90;99.90;;;;;;5074138;28;20024;-74
2022/08/16 03:23:24;;;;;;;18.95;12.00;;;17.90;99.90;;;;;;5074101;28;20048;-74
2022/08/16 03:25:50;;;;;;;20.83;12.25;;;17.80;99.90;;;;;;5074429;28;20111;-74
2022/08/16 03:28:15;;;;;;;19.25;12.23;;;17.80;99.90;;;;;;5074647;28;20028;-74
2022/08/16 03:30:41;;;;;;;22.42;12.65;;;17.80;99.90;;;;;;5073975;28;20505;-74
2022/08/16 03:33:06;;;;;;;19.65;12.65;;;17.80;99.90;;;;;;5072744;28;20071;-74
2022/08/16 03:35:34;;;;;;;19.60;13.27;;;18.30;99.90;;;;;;5072597;28;20025;-74
2022/08/16 03:38:02;;;;;;;23.45;12.63;;;17.70;99.90;;;;;;5073918;28;20081;-74
2022/08/16 03:40:29;;;;;;;22.30;12.55;;;17.70;99.90;;;;;;5073933;28;20106;-74
2022/08/16 03:42:54;;;;;;;22.88;12.45;;;17.60;99.90;;;;;;5073767;28;20027;-74
2022/08/16 03:45:20;;;;;;;24.33;14.05;;;17.60;99.90;;;;;;5073881;28;20025;-74
2022/08/16 03:47:47;;;;;;;21.23;13.43;;;17.60;99.90;;;;;;5073931;28;20058;-74
2022/08/16 03:50:13;;;;;;;21.52;12.30;;;17.50;99.90;;;;;;5073864;28;20411;-74
2022/08/16 03:52:41;;;;;;;25.35;13.75;;;17.50;99.90;;;;;;5073677;28;20032;-74
2022/08/16 03:55:08;;;;;;;19.25;12.50;;;17.40;99.90;;;;;;5072409;28;20082;-74
2022/08/16 03:57:34;;;;;;;23.10;13.55;;;17.30;99.90;;;;;;5073934;28;20376;-74
2022/08/16 03:59:59;;;;;;;21.60;13.40;;;17.80;99.90;;;;;;5073631;28;20100;-74
2022/08/16 04:02:25;;;;;;;22.00;13.27;;;17.30;99.90;;;;;;5073612;28;20029;-74
2022/08/16 04:04:52;;;;;;;20.85;12.55;;;17.30;99.90;;;;;;5074091;28;20416;-74
2022/08/16 04:07:18;;;;;;;21.55;12.23;;;17.30;99.90;;;;;;5073675;28;20039;-74
2022/08/16 04:09:44;;;;;;;21.63;12.50;;;17.30;99.90;;;;;;5073768;28;20016;-74
2022/08/16 04:12:10;;;;;;;21.20;12.43;;;17.30;99.90;;;;;;5073669;28;20024;-74
2022/08/16 04:14:36;;;;;;;21.27;13.00;;;17.30;99.90;;;;;;5073225;28;20505;-74
2022/08/16 04:17:03;;;;;;;20.38;12.65;;;17.30;99.90;;;;;;5073264;28;20064;-74
2022/08/16 04:19:28;;;;;;;19.25;12.52;;;17.30;99.90;;;;;;5073350;28;20016;-74
2022/08/16 04:21:54;;;;;;;19.10;11.38;;;17.30;99.90;;;;;;5072115;28;20027;-74
2022/08/16 04:24:20;;;;;;;20.38;11.07;;;17.30;99.90;;;;;;5073450;28;20489;-74
2022/08/16 04:26:46;;;;;;;24.98;12.80;;;17.30;99.90;;;;;;5073019;28;20028;-74
2022/08/16 04:29:14;;;;;;;25.85;13.00;;;17.30;99.90;;;;;;5073313;28;20550;-74
2022/08/16 04:31:39;;;;;;;22.60;12.40;;;17.30;99.90;;;;;;5073550;28;20017;-74
2022/08/16 04:34:05;;;;;;;21.25;13.00;;;17.40;99.90;;;;;;5073600;28;20029;-74
2022/08/16 04:36:31;;;;;;;22.80;12.70;;;17.40;99.90;;;;;;5073222;28;20070;-74
2022/08/16 04:38:57;;;;;;;20.80;13.00;;;17.40;99.90;;;;;;5071979;28;20112;-74
2022/08/16 04:41:22;;;;;;;23.10;12.93;;;17.50;99.90;;;;;;5073180;28;20024;-74
2022/08/16 04:43:48;;;;;;;21.45;13.00;;;17.50;99.90;;;;;;5073791;28;20021;-74
2022/08/16 04:46:15;;;;;;;22.73;13.60;;;17.50;99.90;;;;;;5071860;28;20029;-74
2022/08/16 04:48:41;;;;;;;22.63;12.65;;;17.50;99.90;;;;;;5073114;28;20020;-74
2022/08/16 04:51:08;;;;;;;22.27;12.60;;;17.50;99.90;;;;;;5073434;28;20064;-74
2022/08/16 04:53:34;;;;;;;21.20;11.90;;;17.60;99.90;;;;;;5073268;28;20086;-74
2022/08/16 04:56:00;;;;;;;22.33;13.30;;;17.60;99.90;;;;;;5072923;28;20032;-74
2022/08/16 04:58:26;;;;;;;17.33;11.10;;;17.60;99.90;;;;;;5073019;28;20032;-74
2022/08/16 05:00:52;;;;;;;19.20;12.68;;;17.60;99.90;;;;;;5073044;28;20021;-74
2022/08/16 05:03:17;;;;;;;20.27;12.13;;;17.70;99.90;;;;;;5071846;28;20012;-74
2022/08/16 05:05:43;;;;;;;17.80;11.10;;;17.70;99.90;;;;;;5071806;28;20388;-74
2022/08/16 05:08:09;;;;;;;21.60;11.63;;;17.70;99.90;;;;;;5073290;28;20104;-74
2022/08/16 05:10:35;;;;;;;22.20;11.90;;;17.70;99.90;;;;;;5071740;28;20021;-74
2022/08/16 05:13:03;;;;;;;18.02;11.32;;;17.80;99.90;;;;;;5072910;28;20396;-74
2022/08/16 05:15:28;;;;;;;19.05;12.75;;;17.80;99.90;;;;;;5072734;28;20048;-74
2022/08/16 05:17:54;;;;;;;20.67;11.10;;;17.80;99.90;;;;;;5072881;28;20024;-74
2022/08/16 05:20:20;;;;;;;23.33;12.38;;;17.80;99.90;;;;;;5073185;28;20032;-74
2022/08/16 05:22:46;;;;;;;21.40;13.18;;;17.90;99.90;;;;;;5072784;28;20020;-72
2022/08/16 05:25:12;;;;;;;20.40;12.27;;;18.00;99.90;;;;;;5073066;28;20052;-72
2022/08/16 05:27:39;;;;;;;21.92;13.32;;;18.10;99.90;;;;;;5072824;28;20017;-72
2022/08/16 05:30:07;;;;;;;22.92;12.18;;;18.10;99.90;;;;;;5072655;28;20029;-72
2022/08/16 05:32:34;;;;;;;20.30;12.47;;;18.30;99.90;;;;;;5072807;28;20505;-72
2022/08/16 05:34:59;;;;;;;22.23;13.05;;;18.30;99.90;;;;;;5072496;28;20048;-72
2022/08/16 05:37:25;;;;;;;18.33;12.20;;;18.40;99.90;;;;;;5071479;28;20049;-70
2022/08/16 05:39:51;;;;;;;19.80;12.30;;;18.40;99.90;;;;;;5074878;28;20085;-70
2022/08/16 05:42:16;;;;;;;17.50;11.05;;;18.50;99.90;;;;;;5076201;28;20091;-70
2022/08/16 05:44:42;;;;;;;17.83;12.05;;;18.60;99.90;;;;;;5076084;28;20150;-70
2022/08/16 05:47:08;;;;;;;20.50;12.80;;;18.60;99.90;;;;;;5076479;28;20154;-70
2022/08/16 05:49:34;;;;;;;22.88;12.75;;;18.80;99.90;;;;;;5076160;28;20021;-70
2022/08/16 05:52:00;;;;;;;20.77;11.32;;;18.90;99.90;;;;;;5076060;28;20035;-70
2022/08/16 05:54:26;;;;;;;19.75;12.65;;;19.00;99.90;;;;;;5076285;28;20021;-70
2022/08/16 05:56:54;;;;;;;19.88;13.10;;;19.10;99.90;;;;;;5075871;28;20066;-70
2022/08/16 05:59:19;;;;;;;20.08;11.27;;;19.30;99.90;;;;;;5074634;28;20371;-71
2022/08/16 06:01:45;;;;;;;16.10;9.70;;;19.50;99.90;;;;;;5075687;28;20070;-71
2022/08/16 06:04:12;;;;;;;21.73;13.95;;;19.80;99.90;;;;;;5076397;28;20020;-70
2022/08/16 06:06:40;;;;;;;22.13;14.38;;;20.00;99.90;;;;;;5076057;28;20032;-71
2022/08/16 06:09:06;;;;;;;26.03;14.63;;;20.20;99.90;;;;;;5076057;28;20111;-71
2022/08/16 06:11:31;;;;;;;24.00;13.35;;;20.40;99.90;;;;;;5075874;28;20103;-71
2022/08/16 06:13:57;;;;;;;28.42;14.85;;;20.60;99.90;;;;;;5075591;28;20032;-71
2022/08/16 06:16:22;;;;;;;22.27;13.02;;;20.70;99.90;;;;;;5075568;28;20048;-71
2022/08/16 06:18:48;;;;;;;25.17;15.15;;;20.80;99.90;;;;;;5074335;28;20016;-71
2022/08/16 06:21:14;;;;;;;24.48;14.45;;;20.90;99.90;;;;;;5075827;28;20017;-71
2022/08/16 06:23:40;;;;;;;21.15;13.95;;;21.00;99.90;;;;;;5075635;28;20021;-71
2022/08/16 06:26:06;;;;;;;23.92;13.60;;;21.10;99.90;;;;;;5075564;28;20056;-73
2022/08/16 06:28:32;;;;;;;25.85;13.98;;;21.20;99.90;;;;;;5075443;28;20477;-73
2022/08/16 06:30:59;;;;;;;22.63;12.65;;;21.20;99.90;;;;;;5075181;28;20034;-73
2022/08/16 06:33:24;;;;;;;22.02;12.68;;;21.30;99.90;;;;;;5074941;28;20497;-73
2022/08/16 06:35:51;;;;;;;22.02;13.40;;;21.40;99.90;;;;;;5075459;28;20020;-73
2022/08/16 06:38:18;;;;;;;20.75;13.60;;;21.30;99.90;;;;;;5073622;28;20103;-73
2022/08/16 06:40:43;;;;;;;20.83;12.80;;;21.50;99.90;;;;;;5075306;28;20059;-73
2022/08/16 06:43:09;;;;;;;21.40;13.38;;;21.50;99.90;;;;;;5074805;28;20040;-73
2022/08/16 06:45:39;;;;;;;23.25;12.65;;;21.60;99.90;;;;;;5075423;28;20449;-72
2022/08/16 06:48:05;;;;;;;21.17;12.93;;;21.60;99.90;;;;;;5073613;28;20052;-74
2022/08/16 06:50:31;;;;;;;21.75;12.63;;;21.70;99.90;;;;;;5074988;28;20385;-75
2022/08/16 06:52:57;;;;;;;22.77;12.63;;;21.80;99.90;;;;;;5075121;28;20020;-75
2022/08/16 06:55:23;;;;;;;18.08;11.75;;;21.80;99.90;;;;;;5074810;28;20534;-74
2022/08/16 06:57:50;;;;;;;18.90;12.55;;;21.80;99.90;;;;;;5074590;28;20017;-75
2022/08/16 07:00:16;;;;;;;18.08;12.27;;;21.90;99.90;;;;;;5074613;28;20017;-75
2022/08/16 07:02:43;;;;;;;18.25;11.85;;;21.90;99.90;;;;;;5073310;28;20039;-75
2022/08/16 07:05:10;;;;;;;21.77;12.20;;;22.10;99.90;;;;;;5073203;28;20017;-75
2022/08/16 07:07:38;;;;;;;18.02;11.48;;;22.10;99.90;;;;;;5073233;28;20077;-75
2022/08/16 07:10:05;;;;;;;20.92;12.85;;;22.10;99.90;;;;;;5073836;28;20024;-75
2022/08/16 07:12:31;;;;;;;17.27;11.30;;;22.30;99.90;;;;;;5074267;28;20024;-75
2022/08/16 07:14:59;;;;;;;16.95;11.20;;;22.30;99.90;;;;;;5094245;22;20040;-74
2022/08/16 07:17:25;;;;;;;22.70;11.38;;;22.40;99.90;;;;;;5094723;28;20078;-74
2022/08/16 07:19:51;;;;;;;19.67;10.20;;;22.60;99.90;;;;;;5076469;28;20035;-74
2022/08/16 07:22:18;;;;;;;18.45;11.90;;;22.60;99.90;;;;;;5076369;28;20050;-74
2022/08/16 07:24:44;;;;;;;16.38;11.35;;;22.70;99.90;;;;;;5076445;28;20553;-74
2022/08/16 07:27:10;;;;;;;20.00;12.70;;;22.80;99.90;;;;;;5076458;28;20103;-74
2022/08/16 07:29:36;;;;;;;19.05;10.63;;;22.90;99.90;;;;;;5076551;28;20553;-74
2022/08/16 07:32:02;;;;;;;16.75;10.77;;;22.90;99.90;;;;;;5094664;28;20081;-74
2022/08/16 07:34:28;;;;;;;17.38;10.75;;;23.00;99.90;;;;;;5094664;28;20097;-74
2022/08/16 07:36:54;;;;;;;20.25;11.70;;;23.10;99.90;;;;;;5076143;28;20020;-74
2022/08/16 07:39:20;;;;;;;16.88;10.80;;;23.20;99.90;;;;;;5076414;28;20028;-74
2022/08/16 07:41:45;;;;;;;15.85;10.52;;;23.30;99.90;;;;;;5094329;28;20012;-74
2022/08/16 07:44:11;;;;;;;15.18;9.60;;;23.30;99.90;;;;;;5094052;28;20020;-74
2022/08/16 07:46:37;;;;;;;22.40;11.75;;;23.40;99.90;;;;;;5075873;28;20031;-74
2022/08/16 07:49:03;;;;;;;15.45;9.45;;;23.50;99.90;;;;;;5093949;28;20023;-74
2022/08/16 07:51:33;;;;;;;19.25;11.60;;;23.60;99.90;;;;;;5075639;28;20534;-74
2022/08/16 07:54:01;;;;;;;17.33;10.60;;;23.70;99.90;;;;;;5076329;28;20050;-74
2022/08/16 07:56:27;;;;;;;18.43;11.03;;;23.70;99.90;;;;;;5093833;28;20052;-74
2022/08/16 07:58:54;;;;;;;18.30;10.93;;;23.80;99.90;;;;;;5094134;28;20035;-74
2022/08/16 08:01:19;;;;;;;17.00;11.48;;;23.80;99.90;;;;;;5093528;28;20043;-74
2022/08/16 08:03:46;;;;;;;16.17;10.45;;;23.90;99.90;;;;;;5075217;28;20016;-74
2022/08/16 08:06:12;;;;;;;17.13;10.07;;;23.90;99.90;;;;;;5093669;28;20492;-74
2022/08/16 08:08:38;;;;;;;17.55;11.88;;;23.90;99.90;;;;;;5094267;28;20415;-74
2022/08/16 08:11:04;;;;;;;16.50;10.63;;;23.90;99.90;;;;;;5075551;28;20020;-74
2022/08/16 08:13:29;;;;;;;15.27;9.52;;;23.80;99.90;;;;;;5093503;28;20392;-74
2022/08/16 08:15:56;;;;;;;22.95;12.52;;;23.90;99.90;;;;;;5093570;28;20099;-74
2022/08/16 08:18:21;;;;;;;17.58;11.57;;;24.10;99.90;;;;;;5093517;28;20027;-74
2022/08/16 08:20:47;;;;;;;17.23;11.27;;;24.10;99.90;;;;;;5094098;28;20024;-74
2022/08/16 08:23:13;;;;;;;18.92;12.10;;;24.20;99.90;;;;;;5093397;28;20109;-74
2022/08/16 08:25:40;;;;;;;17.83;11.52;;;24.40;99.90;;;;;;5093967;28;20433;-74
2022/08/16 08:28:06;;;;;;;16.35;11.40;;;24.40;99.90;;;;;;5075395;28;20052;-74
2022/08/16 08:30:33;;;;;;;16.13;10.18;;;24.30;99.90;;;;;;5093473;28;20117;-74
2022/08/16 08:32:59;;;;;;;20.38;12.15;;;24.40;99.90;;;;;;5093620;28;20098;-74
2022/08/16 08:35:25;;;;;;;13.50;8.43;;;24.40;99.90;;;;;;5093318;28;20032;-74
2022/08/16 08:37:50;;;;;;;17.65;11.55;;;24.50;99.90;;;;;;5075283;28;20020;-74
2022/08/16 08:40:17;;;;;;;15.43;10.55;;;24.50;99.90;;;;;;5075284;28;20028;-74
2022/08/16 08:42:44;;;;;;;16.13;11.13;;;24.60;99.90;;;;;;5075542;28;20047;-74
2022/08/16 08:45:11;;;;;;;21.30;13.00;;;24.80;99.90;;;;;;5075256;28;20019;-74
2022/08/16 08:47:37;;;;;;;19.13;12.77;;;25.00;99.90;;;;;;5075321;28;20047;-74
2022/08/16 08:50:04;;;;;;;17.60;11.65;;;25.00;99.90;;;;;;5075136;28;20020;-74
2022/08/16 08:52:30;;;;;;;18.88;11.68;;;25.10;99.90;;;;;;5093182;28;20085;-74
2022/08/16 08:54:55;;;;;;;16.38;10.77;;;25.10;99.90;;;;;;5075038;28;20028;-74
2022/08/16 08:57:21;;;;;;;18.50;11.95;;;25.20;99.90;;;;;;5093088;28;20107;-74
2022/08/16 08:59:47;;;;;;;20.90;12.13;;;25.20;99.90;;;;;;5093200;28;20095;-74
2022/08/16 09:02:15;;;;;;;17.15;11.32;;;25.20;99.90;;;;;;5093098;28;20029;-74
2022/08/16 09:04:42;;;;;;;19.48;12.25;;;25.10;99.90;;;;;;5093666;28;20012;-74
2022/08/16 09:07:07;;;;;;;18.45;11.50;;;25.10;99.90;;;;;;5093173;28;20157;-74
2022/08/16 09:09:33;;;;;;;21.08;12.13;;;25.10;99.90;;;;;;5093223;28;20052;-74
2022/08/16 09:11:59;;;;;;;17.20;12.15;;;25.10;99.90;;;;;;5093024;28;20051;-74
2022/08/16 09:14:25;;;;;;;18.63;12.23;;;25.20;99.90;;;;;;5094068;28;20032;-74
2022/08/16 09:16:51;;;;;;;28.20;10.95;;;25.40;99.90;;;;;;5096744;28;20111;-74
2022/08/16 09:19:17;;;;;;;17.90;10.23;;;25.40;99.90;;;;;;5096807;28;20023;-74
2022/08/16 09:21:42;;;;;;;18.73;10.85;;;25.60;99.90;;;;;;5097263;28;20020;-74
2022/08/16 09:24:08;;;;;;;18.13;11.15;;;25.70;99.90;;;;;;5096980;28;20024;-74
2022/08/16 09:26:34;;;;;;;17.02;10.13;;;25.80;99.90;;;;;;5096703;28;20032;-74
2022/08/16 09:29:00;;;;;;;20.33;11.50;;;25.80;99.90;;;;;;5096696;28;20020;-73
2022/08/16 09:31:25;;;;;;;21.20;13.10;;;25.80;99.90;;;;;;5096768;28;20048;-74
2022/08/16 09:33:54;;;;;;;17.30;10.48;;;25.90;99.90;;;;;;5096825;28;20482;-74
2022/08/16 09:36:20;;;;;;;17.25;10.65;;;25.90;99.90;;;;;;5096408;28;20035;-74
2022/08/16 09:38:45;;;;;;;18.42;10.73;;;25.80;99.90;;;;;;5096380;28;20536;-74
2022/08/16 09:41:11;;;;;;;18.83;12.52;;;26.00;99.90;;;;;;5096403;28;20095;-74
2022/08/16 09:43:38;;;;;;;19.33;12.10;;;26.00;99.90;;;;;;5078133;28;20023;-74
2022/08/16 09:46:06;;;;;;;16.67;10.07;;;26.10;99.90;;;;;;5096255;28;20024;-74
2022/08/16 09:48:40;;;;;;;20.00;11.85;;;26.30;99.90;;;;;;5096318;28;20103;-74
2022/08/16 09:51:08;;;;;;;17.23;11.30;;;26.40;99.90;;;;;;5078213;28;20452;-74
2022/08/16 09:53:35;;;;;;;19.65;13.02;;;26.60;99.90;;;;;;5097356;28;20040;-74
2022/08/16 09:56:03;;;;;;;21.33;11.32;;;26.70;99.90;;;;;;5096075;28;20157;-73
2022/08/16 09:58:29;;;;;;;18.80;11.63;;;26.60;99.90;;;;;;5096820;28;20023;-74
2022/08/16 10:00:55;;;;;;;15.55;10.80;;;26.60;99.90;;;;;;5096122;28;20822;-74
2022/08/16 10:03:21;;;;;;;14.48;9.50;;;26.80;99.90;;;;;;5096186;28;20024;-74
2022/08/16 10:05:48;;;;;;;15.65;10.35;;;26.80;99.60;;;;;;5096649;28;20081;-74
2022/08/16 10:08:15;;;;;;;14.35;10.07;;;27.00;99.70;;;;;;5095819;28;20024;-74
2022/08/16 10:13:10;;;;;;;16.70;8.70;;;27.00;99.60;;;;;;5077620;28;20020;-74
2022/08/16 10:13:28;;;;;;;12.77;8.38;;;27.10;98.90;;;;;;5095575;28;20392;-75
2022/08/16 10:15:58;;;;;;;16.65;10.20;;;27.10;99.10;;;;;;5095605;28;20107;-75
2022/08/16 10:18:28;;;;;;;20.42;10.45;;;27.10;98.20;;;;;;5096259;28;20016;-75
2022/08/16 10:20:54;;;;;;;14.95;9.65;;;27.10;98.60;;;;;;5096507;28;20047;-75
2022/08/16 10:23:20;;;;;;;12.68;8.43;;;27.00;99.00;;;;;;5077536;28;20012;-75
2022/08/16 10:25:47;;;;;;;14.55;9.43;;;27.00;98.80;;;;;;5076977;28;20031;-76
2022/08/16 10:28:14;;;;;;;14.88;8.85;;;27.10;98.30;;;;;;5095614;28;20020;-75
2022/08/16 10:30:43;;;;;;;13.00;8.00;;;27.20;98.40;;;;;;5095524;28;20031;-75
2022/08/16 10:33:13;;;;;;;14.02;10.43;;;27.20;98.00;;;;;;5095760;28;20419;-75
2022/08/16 10:35:41;;;;;;;17.42;10.98;;;27.30;98.10;;;;;;5095209;28;20024;-75
2022/08/16 10:38:06;;;;;;;14.80;10.35;;;27.40;97.80;;;;;;5095310;28;20027;-75
2022/08/16 10:40:32;;;;;;;20.95;12.02;;;27.50;98.30;;;;;;5095237;28;20024;-75
2022/08/16 10:43:01;;;;;;;13.55;8.10;;;27.70;97.90;;;;;;5095154;28;20110;-75
2022/08/16 10:45:29;;;;;;;16.52;9.52;;;27.90;97.30;;;;;;5095411;28;20023;-75
2022/08/16 10:47:55;;;;;;;14.82;8.23;;;27.90;95.90;;;;;;5095318;28;20454;-75
2022/08/16 10:50:21;;;;;;;13.05;7.95;;;28.00;96.30;;;;;;5095189;28;20473;-75
2022/08/16 10:52:47;;;;;;;17.05;9.55;;;28.10;96.50;;;;;;5095030;28;20020;-75
2022/08/16 10:55:12;;;;;;;13.68;7.63;;;28.50;95.30;;;;;;5095196;28;20427;-75
2022/08/16 10:57:39;;;;;;;11.52;7.68;;;28.70;95.70;;;;;;5095149;28;20464;-75
2022/08/16 11:00:11;;;;;;;13.10;7.00;;;28.70;94.90;;;;;;5076721;28;20103;-75
2022/08/16 11:02:38;;;;;;;15.30;8.10;;;28.80;93.60;;;;;;5094776;28;20032;-75
2022/08/16 11:05:05;;;;;;;15.00;8.43;;;28.60;94.10;;;;;;5076652;28;20027;-75
2022/08/16 11:07:31;;;;;;;12.93;7.18;;;28.40;94.50;;;;;;5076486;28;20031;-75
2022/08/16 11:10:00;;;;;;;12.68;8.43;;;28.20;95.20;;;;;;5076566;28;20024;-75
2022/08/16 11:12:27;;;;;;;12.75;6.13;;;28.20;94.80;;;;;;5076447;28;20381;-76
2022/08/16 11:14:52;;;;;;;13.38;8.80;;;28.20;95.20;;;;;;5094521;28;20119;-76
2022/08/16 11:17:18;;;;;;;13.45;7.85;;;28.20;95.00;;;;;;5094844;28;20456;-75
2022/08/16 11:19:43;;;;;;;12.98;8.65;;;28.20;95.50;;;;;;5094604;28;20016;-76
2022/08/16 11:22:09;;;;;;;12.23;7.78;;;28.10;95.10;;;;;;5094549;28;20020;-76
2022/08/16 11:24:39;;;;;;;9.90;6.38;;;28.00;94.50;;;;;;5094421;28;20070;-75
2022/08/16 11:27:07;;;;;;;9.70;6.18;;;28.20;94.70;;;;;;5094476;28;20020;-76
2022/08/16 11:29:34;;;;;;;11.13;8.25;;;28.40;94.80;;;;;;5095020;28;20024;-76
2022/08/16 11:32:00;;;;;;;15.05;7.70;;;28.60;93.60;;;;;;5094244;28;20067;-76
2022/08/16 11:34:26;;;;;;;16.83;9.48;;;29.10;93.50;;;;;;5094290;28;20024;-76
2022/08/16 11:36:52;;;;;;;15.07;9.60;;;29.20;93.40;;;;;;5075206;28;20080;-76
2022/08/16 11:39:17;;;;;;;11.82;8.55;;;29.50;92.70;;;;;;5094454;28;20020;-76
2022/08/16 11:41:43;;;;;;;12.40;8.85;;;29.70;92.00;;;;;;5094586;28;20384;-76
2022/08/16 11:44:10;;;;;;;13.50;8.52;;;29.60;91.40;;;;;;5094194;28;20062;-76
2022/08/16 11:46:37;;;;;;;15.32;11.18;;;29.50;91.40;;;;;;5094146;28;20031;-76
2022/08/16 11:49:04;;;;;;;15.30;11.00;;;29.70;91.50;;;;;;5093967;28;20059;-76
2022/08/16 11:51:30;;;;;;;18.58;11.13;;;29.90;91.70;;;;;;5093890;28;20538;-75
2022/08/16 11:53:56;;;;;;;13.95;9.48;;;30.10;91.60;;;;;;5094591;28;20099;-76
2022/08/16 11:56:23;;;;;;;19.88;11.80;;;30.10;91.30;;;;;;5093835;28;20024;-76
2022/08/16 11:58:48;;;;;;;13.23;9.35;;;30.10;90.90;;;;;;5093965;28;20423;-76
2022/08/16 12:01:14;;;;;;;16.35;8.90;;;29.90;90.50;;;;;;5075673;28;20020;-76
2022/08/16 12:03:40;;;;;;;13.88;8.02;;;30.00;89.40;;;;;;5075642;28;20492;-76
2022/08/16 12:06:17;;;;;;;13.13;8.68;;;30.00;89.10;;;;;;5093772;28;20077;-76
2022/08/16 12:08:45;;;;;;;11.40;6.28;;;30.10;88.30;;;;;;5094302;28;20497;-76
2022/08/16 12:11:12;;;;;;;9.45;5.05;;;30.40;89.00;;;;;;5093898;28;20541;-76
2022/08/16 12:13:40;;;;;;;10.60;6.07;;;30.40;87.40;;;;;;5093450;28;20390;-76
2022/08/16 12:16:07;;;;;;;;;;;30.20;85.80;;;;;;5094340;28;20313;-76
2022/08/16 12:18:33;;;;;;;7.82;5.10;;;30.00;83.40;;;;;;5093903;28;19904;-76
2022/08/16 12:20:59;;;;;;;8.00;5.10;;;29.70;85.00;;;;;;5075469;28;20042;-76
2022/08/16 12:23:25;;;;;;;8.30;4.85;;;29.30;85.20;;;;;;5093457;28;20038;-75
2022/08/16 12:25:51;;;;;;;6.97;4.88;;;28.90;86.30;;;;;;5075729;28;20115;-75
2022/08/16 12:28:17;;;;;;;11.40;5.90;;;28.70;87.80;;;;;;5094114;28;20523;-75